createdAt,value
2022-08-11T00:18:36.551Z,25.6
2022-08-11T00:48:36.542Z,25.5
2022-08-11T01:18:36.467Z,25.4
2022-08-11T01:48:36.511Z,25.4
2022-08-11T02:18:36.523Z,25.3
2022-08-11T02:48:36.534Z,25.3
2022-08-11T03:18:36.456Z,25.3
2022-08-11T03:48:36.462Z,25.2
2022-08-11T04:18:36.253Z,25.2
2022-08-11T04:48:36.529Z,25.1
2022-08-11T05:18:36.547Z,25.1
2022-08-11T05:48:36.544Z,25.1
2022-08-11T06:18:36.466Z,23.0
2022-08-11T06:48:36.526Z,25.0
2022-08-11T07:18:36.631Z,25.0
2022-08-11T07:48:36.522Z,25.1
2022-08-11T08:18:36.533Z,25.1
2022-08-11T08:48:36.500Z,25.1
2022-08-11T09:18:36.655Z,25.3
2022-08-11T09:48:36.517Z,25.3
2022-08-11T10:48:36.498Z,25.5
2022-08-11T11:18:36.499Z,25.6
2022-08-11T11:48:36.475Z,25.7
2022-08-11T12:18:36.469Z,25.8
2022-08-11T13:18:36.462Z,26.0
2022-08-11T13:48:36.451Z,26.1
2022-08-11T15:18:36.438Z,26.2
2022-08-11T15:48:43.444Z,26.3
2022-08-11T16:18:36.425Z,26.2
2022-08-11T17:48:36.410Z,26.1
2022-08-11T18:18:36.421Z,26.0
2022-08-11T18:48:36.396Z,26.0
2022-08-11T19:18:36.405Z,26.0
2022-08-11T20:48:36.422Z,25.8
2022-08-11T21:18:43.101Z,25.8
2022-08-11T21:48:36.392Z,25.7
2022-08-11T22:18:36.382Z,25.6
2022-08-11T22:48:36.391Z,25.6
2022-08-11T23:18:43.393Z,25.5
2022-08-11T23:48:36.376Z,25.5
